TAF Text Data
IDs:
Format:
Raw Decoded Include METAR

Data at: 0351 UTC 20 Oct 2018

Region: TOP
KATL 200349Z 2004/2106 19004KT P6SM SCT150 BKN250
  FM200700 22004KT P6SM BKN015
  FM200900 25003KT P6SM OVC008
  FM201400 29007KT P6SM BKN015
  PROB30 2016/2018 4SM -SHRA OVC012
  FM202000 30012G20KT P6SM SCT040 SCT100
  FM210000 30012G20KT P6SM SKC


KBOS 192329Z 2000/2106 22014G21KT P6SM SCT250
  FM200700 22011G25KT P6SM -SHRA SCT030 OVC080
  FM201400 23012G27KT P6SM OVC040
  FM202000 26009KT P6SM SCT050
  FM202300 27007KT P6SM SCT150


KBWI 192325Z 2000/2106 16006KT P6SM BKN250
  FM200700 22008KT P6SM -SHRA OVC080
  FM201000 22007KT P6SM OVC040
  FM201400 26007KT P6SM BKN040
  FM201700 27008KT P6SM SCT040
  FM210100 29009KT P6SM SCT150


KCLE 192341Z 2000/2106 21012KT P6SM VCSH BKN070
  TEMPO 2000/2002 -SHRA BKN045
  FM200500 22015G25KT P6SM OVC025
  FM200900 26015G25KT P6SM BKN015
  FM201500 27014G25KT P6SM VCSH BKN025
  FM201900 29018G28KT P6SM -SHRA BKN030
  FM210400 32012G20KT P6SM VCSH BKN035


KCLT 200157Z 2002/2106 20004KT P6SM SCT040 BKN250
  FM200400 21005KT P6SM FEW020 BKN030
  FM200800 22005KT P6SM BKN025
  FM201200 23006KT P6SM FEW015 BKN025
  PROB30 2013/2015 6SM -SHRA FEW010 BKN015
  FM201500 25008KT 6SM -SHRA SCT020 OVC030
  FM201800 27010KT P6SM SCT040
  FM202100 30008KT P6SM SKC


KCVG 200248Z 2003/2106 24012G18KT P6SM VCSH OVC015
  FM200700 25012KT P6SM OVC008
  FM201400 27012G18KT P6SM SCT012 BKN022
  FM201600 28014G24KT P6SM SCT035
  FM201800 29016G32KT P6SM SCT040
  FM202300 32016G32KT P6SM -SHRA BKN040
  FM210300 32014G26KT P6SM SCT040


KDCA 200229Z 2002/2106 19012KT P6SM VCSH BKN140 BKN200
  FM200600 22008KT P6SM -SHRA OVC080
  FM201000 22008KT P6SM OVC040
  FM201600 26007KT P6SM BKN040
  FM201800 27008KT P6SM SCT050
  FM210200 29009KT P6SM SCT200


KDEN 200204Z 2002/2106 15009KT P6SM SKC
  FM200500 20010KT P6SM SKC
  FM201600 34005KT P6SM SKC
  FM201900 04008KT P6SM SKC
  FM202200 10009KT P6SM SKC


KDFW 200309Z 2003/2106 00000KT P6SM SCT008 BKN015 OVC100
  TEMPO 2003/2006 BKN010
  FM200600 33004KT P6SM SCT005 BKN012
  TEMPO 2006/2010 4SM BR BKN006
  FM201200 35006KT 5SM BR BKN007
  FM201500 01010KT P6SM BKN011
  FM201800 02016KT P6SM SCT025 BKN060


KDTW 200307Z 2003/2106 23014G25KT P6SM OVC015
  FM200400 24015G20KT P6SM BKN008
  FM200600 24013KT P6SM SCT025
  FM201200 28013KT P6SM SCT040
  FM201600 28013G22KT P6SM BKN050
  FM201800 28015G24KT P6SM -RA BKN035
  FM202300 32015G30KT P6SM BKN035


KEWR 200230Z 2003/2106 21010KT P6SM BKN150
  FM200900 23010G17KT 6SM -SHRA OVC035
  FM201100 23011G18KT 6SM -SHRA OVC025
  FM201400 25013G21KT P6SM BKN040
  FM201800 26014G22KT P6SM BKN060
  FM202200 28012G20KT P6SM BKN150
  FM210200 31012KT P6SM VCSH BKN060


KFLL 200300Z 2003/2106 09009KT P6SM SCT025 BKN250
  FM200400 VRB06KT P6SM FEW025 SCT250
  FM201800 13008KT P6SM SCT025 SCT250
  FM210000 VRB04KT P6SM FEW025 SCT250


KIAD 200228Z 2002/2106 19010G18KT P6SM VCSH BKN120 BKN200
  FM200600 21007KT P6SM -SHRA OVC070
  FM201000 21007KT P6SM OVC045
  FM201400 26007KT P6SM BKN040
  FM201700 27008KT P6SM SCT040


KIAH 200300Z 2003/2106 36007KT P6SM VCTS FEW007CB BKN015 BKN025
  TEMPO 2003/2006 VRB15KT 2SM TSRA BR SCT006CB BKN010
  FM200600 01005KT 6SM BR VCTS SCT008CB OVC015
  FM201600 36009KT P6SM VCSH BKN015 OVC030
  FM202100 36010KT P6SM BKN025 BKN050
  FM210500 02008KT P6SM SCT015 BKN050


KJFK 200230Z 2003/2106 22015KT P6SM BKN180
  FM200500 22016G23KT P6SM BKN100
  FM200900 23014G22KT 6SM -SHRA OVC035
  FM201100 23014G22KT 6SM -SHRA OVC025
  FM201400 25016G23KT P6SM BKN040
  FM201800 26015G22KT P6SM BKN060
  FM202200 27013G21KT P6SM BKN150
  FM210300 31013KT P6SM VCSH BKN060


KLAS 200245Z 2003/2106 02007KT P6SM SKC
  FM200700 VRB05KT P6SM FEW120
  FM201700 03007KT P6SM SCT120
  FM210300 33005KT P6SM BKN090 BKN250


KLAX 200259Z 2003/2106 26006KT P6SM SKC
  FM200700 VRB03KT P6SM SKC
  FM201400 07005KT P6SM SKC
  FM201900 25012KT P6SM SKC
  FM210400 VRB03KT P6SM SKC


KLGA 200230Z 2003/2106 21012KT P6SM BKN180
  FM200700 23012G20KT P6SM BKN100
  FM200900 24011G19KT 6SM -SHRA OVC035
  FM201100 23011G19KT 6SM -SHRA OVC025
  FM201400 26012G20KT P6SM BKN040
  FM201800 27013G21KT P6SM BKN060
  FM202200 28013G21KT P6SM BKN150
  FM210200 31013KT P6SM VCSH BKN060


KMCO 200258Z 2003/2106 06005KT P6SM FEW025 SCT070
  FM200500 VRB02KT P6SM SCT250
  TEMPO 2010/2013 SCT008
  FM201600 25005KT P6SM VCSH SCT040
  FM202100 32006KT P6SM SCT050 BKN120
  FM210300 28004KT P6SM SCT060 BKN250


KMDW 200241Z 2003/2106 28012KT P6SM SKC
  FM201300 29014G22KT P6SM FEW060
  FM201500 32022G32KT P6SM VCSH BKN060
  PROB30 2017/2021 32025G40KT 4SM -SHRAGS OVC040
  FM202230 33015G25KT P6SM SCT050
  FM210300 32012KT P6SM SKC


KMEM 200316Z 2003/2106 29005KT P6SM -RA SCT030 OVC035
  FM200400 30005KT 6SM -RA FEW015 OVC025
  FM200700 32004KT 5SM -RA BR SCT010 OVC015
  FM201100 33006KT P6SM BKN020
  FM201400 34010KT P6SM SCT025
  FM201600 33010G17KT P6SM SKC


KMIA 200300Z 2003/2106 VRB06KT P6SM SCT030 SCT250
  FM201800 13008KT P6SM SCT025 SCT250
  FM210000 VRB04KT P6SM FEW025 SCT250


KMSP 200257Z 2003/2106 31012KT P6SM SKC
  FM200700 29008KT P6SM VCSH SCT030 BKN080
  FM201000 30020G30KT P6SM SCT050
  FM201200 31021G33KT P6SM FEW050
  FM202000 32017G26KT P6SM SKC
  FM210200 29006KT P6SM SKC


KORD 200241Z 2003/2106 28012KT P6SM SKC
  FM201300 29014G22KT P6SM FEW060
  FM201500 32022G32KT P6SM VCSH BKN060
  PROB30 2017/2021 32025G40KT 4SM -SHRAGS OVC040
  FM202230 33015G25KT P6SM SCT050
  FM210300 32012KT P6SM SKC


KPDX 200250Z 2003/2024 VRB03KT P6SM SKC
  FM201100 VRB02KT 1SM BR OVC002
  FM201900 33006KT P6SM SKC


KPHL 192320Z 2000/2106 20008KT P6SM BKN250
  FM200500 22009KT P6SM VCSH OVC150
  FM200800 22008KT P6SM -SHRA SCT025 OVC050
  TEMPO 2008/2012 4SM -SHRA OVC025
  FM201200 24008KT P6SM OVC050
  PROB30 2012/2014 4SM -SHRA OVC025
  FM201600 27012G19KT P6SM BKN060
  FM202200 27008KT P6SM SCT060 BKN150


KPHX 200248Z 2003/2106 02006KT P6SM FEW080
  FM200900 08008KT P6SM SCT080 BKN100 WS015/12032KT
  FM201600 11015G22KT P6SM SCT070 BKN250
  FM202300 10012KT P6SM SCT070 BKN250


KPIT 200257Z 2003/2106 26010KT P6SM -SHRA OVC050
  FM200600 24010G20KT P6SM VCSH OVC015
  FM201400 25012G22KT P6SM BKN025
  FM202100 28014G28KT 4SM -SHRA OVC025
  FM210400 32012KT P6SM VCSH OVC015


KSAN 200324Z 2003/2106 VRB04KT P6SM SKC
  FM202000 27008KT P6SM SCT080
  FM210200 17005KT P6SM SCT008 SCT080


KSEA 200259Z 2003/2106 36003KT P6SM SKC
  FM200800 02002KT 1/2SM FG SCT001
  FM201000 VRB03KT 1/4SM FG OVC001
  FM201900 35005KT P6SM SKC


KSFO 200257Z 2003/2106 29014KT P6SM SKC
  FM200500 29007KT P6SM SKC
  FM201100 VRB04KT P6SM FEW008
  FM201800 05005KT P6SM FEW010
  FM202100 30010KT P6SM SKC


KSLC 200252Z 2003/2106 15006KT P6SM SKC
  FM202000 32007KT P6SM SKC
  FM210300 15005KT P6SM FEW070


KSTL 200255Z 2003/2106 25008KT P6SM BKN250
  FM200600 27007KT P6SM FEW250
  FM201600 29015G22KT P6SM FEW250
  FM201900 30020G30KT P6SM FEW050


KTPA 200253Z 2003/2106 VRB03KT P6SM SCT090 SCT250
  FM201500 24005KT P6SM FEW020 SCT250
  FM201900 28009KT P6SM SCT040 SCT250
  FM210400 32005KT P6SM FEW250